sensor_id;sensor_type;location;lat;lon;timestamp;temperature;humidity
32612;DHT22;19030;49.478;8.986;2023-11-21T00:00:19;8.90;99.90
32612;DHT22;19030;49.478;8.986;2023-11-21T00:02:21;9.00;99.90
32612;DHT22;19030;49.478;8.986;2023-11-21T00:04:21;8.90;99.90
32612;DHT22;19030;49.478;8.986;2023-11-21T00:06:22;8.90;99.90
32612;DHT22;19030;49.478;8.986;2023-11-21T00:08:22;8.90;99.90
32612;DHT22;19030;49.478;8.986;2023-11-21T00:10:23;8.90;99.90
32612;DHT22;19030;49.478;8.986;2023-11-21T00:12:23;8.90;99.90
32612;DHT22;19030;49.478;8.986;2023-11-21T00:14:25;8.90;99.90
32612;DHT22;19030;49.478;8.986;2023-11-21T00:16:25;8.90;99.90
32612;DHT22;19030;49.478;8.986;2023-11-21T00:18:26;8.90;99.90
32612;DHT22;19030;49.478;8.986;2023-11-21T00:20:26;8.90;99.90
32612;DHT22;19030;49.478;8.986;2023-11-21T00:22:27;8.90;99.90
32612;DHT22;19030;49.478;8.986;2023-11-21T00:24:28;8.90;99.90
32612;DHT22;19030;49.478;8.986;2023-11-21T00:26:28;8.90;99.90
32612;DHT22;19030;49.478;8.986;2023-11-21T00:28:35;8.90;99.90
32612;DHT22;19030;49.478;8.986;2023-11-21T00:30:36;8.90;99.90
32612;DHT22;19030;49.478;8.986;2023-11-21T00:32:38;8.90;99.90
32612;DHT22;19030;49.478;8.986;2023-11-21T00:34:38;8.90;99.90
32612;DHT22;19030;49.478;8.986;2023-11-21T00:36:40;8.90;99.90
32612;DHT22;19030;49.478;8.986;2023-11-21T00:38:41;8.90;99.90
32612;DHT22;19030;49.478;8.986;2023-11-21T00:40:41;8.90;99.90
32612;DHT22;19030;49.478;8.986;2023-11-21T00:42:42;8.90;99.90
32612;DHT22;19030;49.478;8.986;2023-11-21T00:44:42;8.90;99.90
32612;DHT22;19030;49.478;8.986;2023-11-21T00:46:43;8.90;99.90
32612;DHT22;19030;49.478;8.986;2023-11-21T00:48:44;8.90;99.90
32612;DHT22;19030;49.478;8.986;2023-11-21T00:50:44;8.90;99.90
32612;DHT22;19030;49.478;8.986;2023-11-21T00:52:45;8.90;99.90
32612;DHT22;19030;49.478;8.986;2023-11-21T00:54:47;8.90;99.90
32612;DHT22;19030;49.478;8.986;2023-11-21T00:56:48;8.90;99.90
32612;DHT22;19030;49.478;8.986;2023-11-21T00:58:49;8.90;99.90
32612;DHT22;19030;49.478;8.986;2023-11-21T01:00:52;8.90;99.90
32612;DHT22;19030;49.478;8.986;2023-11-21T01:02:53;8.90;99.90
32612;DHT22;19030;49.478;8.986;2023-11-21T01:04:53;8.90;99.90
32612;DHT22;19030;49.478;8.986;2023-11-21T01:06:54;8.90;99.90
32612;DHT22;19030;49.478;8.986;2023-11-21T01:08:55;8.90;99.90
32612;DHT22;19030;49.478;8.986;2023-11-21T01:10:56;8.90;99.90
32612;DHT22;19030;49.478;8.986;2023-11-21T01:12:56;8.90;99.90
32612;DHT22;19030;49.478;8.986;2023-11-21T01:14:58;8.90;99.90
32612;DHT22;19030;49.478;8.986;2023-11-21T01:17:00;8.90;99.90
32612;DHT22;19030;49.478;8.986;2023-11-21T01:19:01;8.90;99.90
32612;DHT22;19030;49.478;8.986;2023-11-21T01:21:04;8.90;99.90
32612;DHT22;19030;49.478;8.986;2023-11-21T01:23:05;8.90;99.90
32612;DHT22;19030;49.478;8.986;2023-11-21T01:25:06;8.90;99.90
32612;DHT22;19030;49.478;8.986;2023-11-21T01:27:07;8.90;99.90
32612;DHT22;19030;49.478;8.986;2023-11-21T01:29:09;8.90;99.90
32612;DHT22;19030;49.478;8.986;2023-11-21T01:31:09;8.90;99.90
32612;DHT22;19030;49.478;8.986;2023-11-21T01:33:10;8.90;99.90
32612;DHT22;19030;49.478;8.986;2023-11-21T01:35:11;8.90;99.90
32612;DHT22;19030;49.478;8.986;2023-11-21T01:37:11;9.00;99.90
32612;DHT22;19030;49.478;8.986;2023-11-21T01:39:12;8.90;99.90
32612;DHT22;19030;49.478;8.986;2023-11-21T01:41:16;9.00;99.90
32612;DHT22;19030;49.478;8.986;2023-11-21T01:43:16;9.00;99.90
32612;DHT22;19030;49.478;8.986;2023-11-21T01:45:17;9.00;99.90
32612;DHT22;19030;49.478;8.986;2023-11-21T01:47:17;9.00;99.90
32612;DHT22;19030;49.478;8.986;2023-11-21T01:49:18;9.00;99.90
32612;DHT22;19030;49.478;8.986;2023-11-21T01:51:20;9.00;99.90
32612;DHT22;19030;49.478;8.986;2023-11-21T01:53:21;9.00;99.90
32612;DHT22;19030;49.478;8.986;2023-11-21T01:55:23;9.00;99.90
32612;DHT22;19030;49.478;8.986;2023-11-21T01:57:24;8.90;99.90
32612;DHT22;19030;49.478;8.986;2023-11-21T01:59:26;9.00;99.90
32612;DHT22;19030;49.478;8.986;2023-11-21T02:01:27;9.00;99.90
32612;DHT22;19030;49.478;8.986;2023-11-21T02:03:27;9.00;99.90
32612;DHT22;19030;49.478;8.986;2023-11-21T02:05:28;9.00;99.90
32612;DHT22;19030;49.478;8.986;2023-11-21T02:07:29;9.00;99.90
32612;DHT22;19030;49.478;8.986;2023-11-21T02:09:32;9.00;99.90
32612;DHT22;19030;49.478;8.986;2023-11-21T02:11:34;9.00;99.90
32612;DHT22;19030;49.478;8.986;2023-11-21T02:13:36;9.00;99.90
32612;DHT22;19030;49.478;8.986;2023-11-21T02:15:37;9.00;99.90
32612;DHT22;19030;49.478;8.986;2023-11-21T02:17:38;9.00;99.90
32612;DHT22;19030;49.478;8.986;2023-11-21T02:19:39;9.00;99.90
32612;DHT22;19030;49.478;8.986;2023-11-21T02:21:40;9.00;99.90
32612;DHT22;19030;49.478;8.986;2023-11-21T02:23:41;9.00;99.90
32612;DHT22;19030;49.478;8.986;2023-11-21T02:25:44;9.00;99.90
32612;DHT22;19030;49.478;8.986;2023-11-21T02:27:45;9.00;99.90
32612;DHT22;19030;49.478;8.986;2023-11-21T02:29:48;9.00;99.90
32612;DHT22;19030;49.478;8.986;2023-11-21T02:31:51;9.00;99.90
32612;DHT22;19030;49.478;8.986;2023-11-21T02:33:52;9.00;99.90
32612;DHT22;19030;49.478;8.986;2023-11-21T02:35:53;9.00;99.90
32612;DHT22;19030;49.478;8.986;2023-11-21T02:37:55;9.00;99.90
32612;DHT22;19030;49.478;8.986;2023-11-21T02:39:56;9.00;99.90
32612;DHT22;19030;49.478;8.986;2023-11-21T02:41:56;9.00;99.90
32612;DHT22;19030;49.478;8.986;2023-11-21T02:43:57;9.00;99.90
32612;DHT22;19030;49.478;8.986;2023-11-21T02:45:57;9.10;99.90
32612;DHT22;19030;49.478;8.986;2023-11-21T02:47:58;9.00;99.90
32612;DHT22;19030;49.478;8.986;2023-11-21T02:49:59;9.10;99.90
32612;DHT22;19030;49.478;8.986;2023-11-21T02:52:00;9.00;99.90
32612;DHT22;19030;49.478;8.986;2023-11-21T02:54:01;9.10;99.90
32612;DHT22;19030;49.478;8.986;2023-11-21T02:56:06;9.10;99.90
32612;DHT22;19030;49.478;8.986;2023-11-21T02:58:06;9.10;99.90
32612;DHT22;19030;49.478;8.986;2023-11-21T03:00:07;9.00;99.90
32612;DHT22;19030;49.478;8.986;2023-11-21T03:02:08;9.10;99.90
32612;DHT22;19030;49.478;8.986;2023-11-21T03:04:09;9.10;99.90
32612;DHT22;19030;49.478;8.986;2023-11-21T03:06:09;9.10;99.90
32612;DHT22;19030;49.478;8.986;2023-11-21T03:08:10;9.10;99.90
32612;DHT22;19030;49.478;8.986;2023-11-21T03:10:10;9.00;99.90
32612;DHT22;19030;49.478;8.986;2023-11-21T03:12:11;9.10;99.90
32612;DHT22;19030;49.478;8.986;2023-11-21T03:14:16;9.10;99.90
32612;DHT22;19030;49.478;8.986;2023-11-21T03:16:16;9.00;99.90
32612;DHT22;19030;49.478;8.986;2023-11-21T03:18:17;9.10;99.90
32612;DHT22;19030;49.478;8.986;2023-11-21T03:20:18;9.10;99.90
32612;DHT22;19030;49.478;8.986;2023-11-21T03:22:18;9.10;99.90
32612;DHT22;19030;49.478;8.986;2023-11-21T03:24:19;9.00;99.90
32612;DHT22;19030;49.478;8.986;2023-11-21T03:26:20;9.00;99.90
32612;DHT22;19030;49.478;8.986;2023-11-21T03:28:21;9.00;99.90
32612;DHT22;19030;49.478;8.986;2023-11-21T03:30:21;9.10;99.90
32612;DHT22;19030;49.478;8.986;2023-11-21T03:32:22;9.10;99.90
32612;DHT22;19030;49.478;8.986;2023-11-21T03:34:27;9.10;99.90
32612;DHT22;19030;49.478;8.986;2023-11-21T03:36:29;9.10;99.90
32612;DHT22;19030;49.478;8.986;2023-11-21T03:38:29;9.10;99.90
32612;DHT22;19030;49.478;8.986;2023-11-21T03:40:31;9.10;99.90
32612;DHT22;19030;49.478;8.986;2023-11-21T03:42:32;9.10;99.90
32612;DHT22;19030;49.478;8.986;2023-11-21T03:44:32;9.10;99.90
32612;DHT22;19030;49.478;8.986;2023-11-21T03:46:33;9.10;99.90
32612;DHT22;19030;49.478;8.986;2023-11-21T03:48:33;9.10;99.90
32612;DHT22;19030;49.478;8.986;2023-11-21T03:50:34;9.10;99.90
32612;DHT22;19030;49.478;8.986;2023-11-21T03:52:35;9.10;99.90
32612;DHT22;19030;49.478;8.986;2023-11-21T03:54:36;9.10;99.90
32612;DHT22;19030;49.478;8.986;2023-11-21T03:56:36;9.10;99.90
32612;DHT22;19030;49.478;8.986;2023-11-21T03:58:37;9.10;99.90
32612;DHT22;19030;49.478;8.986;2023-11-21T04:00:38;9.10;99.90
32612;DHT22;19030;49.478;8.986;2023-11-21T04:02:38;9.10;99.90
32612;DHT22;19030;49.478;8.986;2023-11-21T04:04:39;9.10;99.90
32612;DHT22;19030;49.478;8.986;2023-11-21T04:06:41;9.10;99.90
32612;DHT22;19030;49.478;8.986;2023-11-21T04:08:42;9.10;99.90
32612;DHT22;19030;49.478;8.986;2023-11-21T04:10:42;9.10;99.90
32612;DHT22;19030;49.478;8.986;2023-11-21T04:12:43;9.00;99.90
32612;DHT22;19030;49.478;8.986;2023-11-21T04:14:43;9.10;99.90
32612;DHT22;19030;49.478;8.986;2023-11-21T04:16:44;9.10;99.90
32612;DHT22;19030;49.478;8.986;2023-11-21T04:18:44;9.10;99.90
32612;DHT22;19030;49.478;8.986;2023-11-21T04:20:45;9.10;99.90
32612;DHT22;19030;49.478;8.986;2023-11-21T04:22:46;9.10;99.90
32612;DHT22;19030;49.478;8.986;2023-11-21T04:24:46;9.10;99.90
32612;DHT22;19030;49.478;8.986;2023-11-21T04:26:47;9.10;99.90
32612;DHT22;19030;49.478;8.986;2023-11-21T04:28:47;9.10;99.90
32612;DHT22;19030;49.478;8.986;2023-11-21T04:30:48;9.10;99.90
32612;DHT22;19030;49.478;8.986;2023-11-21T04:32:48;9.10;99.90
32612;DHT22;19030;49.478;8.986;2023-11-21T04:34:49;9.10;99.90
32612;DHT22;19030;49.478;8.986;2023-11-21T04:36:50;9.10;99.90
32612;DHT22;19030;49.478;8.986;2023-11-21T04:38:50;9.10;99.90
32612;DHT22;19030;49.478;8.986;2023-11-21T04:40:51;9.10;99.90
32612;DHT22;19030;49.478;8.986;2023-11-21T04:42:51;9.10;99.90
32612;DHT22;19030;49.478;8.986;2023-11-21T04:44:52;9.10;99.90
32612;DHT22;19030;49.478;8.986;2023-11-21T04:46:53;9.10;99.90
32612;DHT22;19030;49.478;8.986;2023-11-21T04:48:53;9.10;99.90
32612;DHT22;19030;49.478;8.986;2023-11-21T04:50:54;9.10;99.90
32612;DHT22;19030;49.478;8.986;2023-11-21T04:52:54;9.10;99.90
32612;DHT22;19030;49.478;8.986;2023-11-21T04:54:55;9.20;99.90
32612;DHT22;19030;49.478;8.986;2023-11-21T04:56:58;9.10;99.90
32612;DHT22;19030;49.478;8.986;2023-11-21T04:58:59;9.10;99.90
32612;DHT22;19030;49.478;8.986;2023-11-21T05:00:59;9.20;99.90
32612;DHT22;19030;49.478;8.986;2023-11-21T05:03:00;9.10;99.90
32612;DHT22;19030;49.478;8.986;2023-11-21T05:05:05;9.10;99.90
32612;DHT22;19030;49.478;8.986;2023-11-21T05:07:06;9.20;99.90
32612;DHT22;19030;49.478;8.986;2023-11-21T05:09:06;9.10;99.90
32612;DHT22;19030;49.478;8.986;2023-11-21T05:11:12;9.10;99.90
32612;DHT22;19030;49.478;8.986;2023-11-21T05:13:12;9.10;99.90
32612;DHT22;19030;49.478;8.986;2023-11-21T05:15:15;9.20;99.90
32612;DHT22;19030;49.478;8.986;2023-11-21T05:17:15;9.20;99.90
32612;DHT22;19030;49.478;8.986;2023-11-21T05:19:16;9.20;99.90
32612;DHT22;19030;49.478;8.986;2023-11-21T05:21:16;9.20;99.90
32612;DHT22;19030;49.478;8.986;2023-11-21T05:23:17;9.20;99.90
32612;DHT22;19030;49.478;8.986;2023-11-21T05:25:18;9.20;99.90
32612;DHT22;19030;49.478;8.986;2023-11-21T05:27:18;9.20;99.90
32612;DHT22;19030;49.478;8.986;2023-11-21T05:29:19;9.20;99.90
32612;DHT22;19030;49.478;8.986;2023-11-21T05:31:19;9.20;99.90
32612;DHT22;19030;49.478;8.986;2023-11-21T05:33:20;9.20;99.90
32612;DHT22;19030;49.478;8.986;2023-11-21T05:35:21;9.20;99.90
32612;DHT22;19030;49.478;8.986;2023-11-21T05:37:21;9.20;99.90
32612;DHT22;19030;49.478;8.986;2023-11-21T05:39:23;9.20;99.90
32612;DHT22;19030;49.478;8.986;2023-11-21T05:41:24;9.20;99.90
32612;DHT22;19030;49.478;8.986;2023-11-21T05:43:26;9.20;99.90
32612;DHT22;19030;49.478;8.986;2023-11-21T05:45:28;9.20;99.90
32612;DHT22;19030;49.478;8.986;2023-11-21T05:47:30;9.20;99.90
32612;DHT22;19030;49.478;8.986;2023-11-21T05:49:30;9.20;99.90
32612;DHT22;19030;49.478;8.986;2023-11-21T05:51:31;9.20;99.90
32612;DHT22;19030;49.478;8.986;2023-11-21T05:53:32;9.20;99.90
32612;DHT22;19030;49.478;8.986;2023-11-21T05:55:32;9.20;99.90
32612;DHT22;19030;49.478;8.986;2023-11-21T05:57:37;9.20;99.90
32612;DHT22;19030;49.478;8.986;2023-11-21T05:59:38;9.20;99.90
32612;DHT22;19030;49.478;8.986;2023-11-21T06:01:39;9.20;99.90
32612;DHT22;19030;49.478;8.986;2023-11-21T06:03:39;9.20;99.90
32612;DHT22;19030;49.478;8.986;2023-11-21T06:05:40;9.20;99.90
32612;DHT22;19030;49.478;8.986;2023-11-21T06:07:40;9.20;99.90
32612;DHT22;19030;49.478;8.986;2023-11-21T06:09:41;9.20;99.90
32612;DHT22;19030;49.478;8.986;2023-11-21T06:11:41;9.20;99.90
32612;DHT22;19030;49.478;8.986;2023-11-21T06:13:42;9.20;99.90
32612;DHT22;19030;49.478;8.986;2023-11-21T06:15:43;9.20;99.90
32612;DHT22;19030;49.478;8.986;2023-11-21T06:17:43;9.20;99.90
32612;DHT22;19030;49.478;8.986;2023-11-21T06:19:44;9.20;99.90
32612;DHT22;19030;49.478;8.986;2023-11-21T06:21:46;9.20;99.90
32612;DHT22;19030;49.478;8.986;2023-11-21T06:23:47;9.20;99.90
32612;DHT22;19030;49.478;8.986;2023-11-21T06:25:48;9.20;99.90
32612;DHT22;19030;49.478;8.986;2023-11-21T06:27:50;9.20;99.90
32612;DHT22;19030;49.478;8.986;2023-11-21T06:29:52;9.20;99.90
32612;DHT22;19030;49.478;8.986;2023-11-21T06:31:52;9.20;99.90
32612;DHT22;19030;49.478;8.986;2023-11-21T06:33:55;9.20;99.90
32612;DHT22;19030;49.478;8.986;2023-11-21T06:35:55;9.20;99.90
32612;DHT22;19030;49.478;8.986;2023-11-21T06:37:56;9.20;99.90
32612;DHT22;19030;49.478;8.986;2023-11-21T06:39:58;9.20;99.90
32612;DHT22;19030;49.478;8.986;2023-11-21T06:41:59;9.20;99.90
32612;DHT22;19030;49.478;8.986;2023-11-21T06:44:00;9.20;99.90
32612;DHT22;19030;49.478;8.986;2023-11-21T06:46:01;9.20;99.90
32612;DHT22;19030;49.478;8.986;2023-11-21T06:48:01;9.20;99.90
32612;DHT22;19030;49.478;8.986;2023-11-21T06:50:02;9.20;99.90
32612;DHT22;19030;49.478;8.986;2023-11-21T06:52:03;9.20;99.90
32612;DHT22;19030;49.478;8.986;2023-11-21T06:54:04;9.20;99.90
32612;DHT22;19030;49.478;8.986;2023-11-21T06:56:05;9.20;99.90
32612;DHT22;19030;49.478;8.986;2023-11-21T06:58:15;9.20;99.90
32612;DHT22;19030;49.478;8.986;2023-11-21T07:00:17;9.20;99.90
32612;DHT22;19030;49.478;8.986;2023-11-21T07:02:20;9.20;99.90
32612;DHT22;19030;49.478;8.986;2023-11-21T07:04:21;9.20;99.90
32612;DHT22;19030;49.478;8.986;2023-11-21T07:06:21;9.20;99.90
32612;DHT22;19030;49.478;8.986;2023-11-21T07:08:22;9.20;99.90
32612;DHT22;19030;49.478;8.986;2023-11-21T07:10:23;9.20;99.90
32612;DHT22;19030;49.478;8.986;2023-11-21T07:12:23;9.20;99.90
32612;DHT22;19030;49.478;8.986;2023-11-21T07:14:26;9.20;99.90
32612;DHT22;19030;49.478;8.986;2023-11-21T07:16:26;9.30;99.90
32612;DHT22;19030;49.478;8.986;2023-11-21T07:18:27;9.30;99.90
32612;DHT22;19030;49.478;8.986;2023-11-21T07:20:27;9.30;99.90
32612;DHT22;19030;49.478;8.986;2023-11-21T07:22:28;9.30;99.90
32612;DHT22;19030;49.478;8.986;2023-11-21T07:24:29;9.40;99.90
32612;DHT22;19030;49.478;8.986;2023-11-21T07:26:31;9.40;99.90
32612;DHT22;19030;49.478;8.986;2023-11-21T07:28:31;9.40;99.90
32612;DHT22;19030;49.478;8.986;2023-11-21T07:30:32;9.40;99.90
32612;DHT22;19030;49.478;8.986;2023-11-21T07:32:32;9.40;99.90
32612;DHT22;19030;49.478;8.986;2023-11-21T07:34:33;9.40;99.90
32612;DHT22;19030;49.478;8.986;2023-11-21T07:36:34;9.40;99.90
32612;DHT22;19030;49.478;8.986;2023-11-21T07:38:34;9.40;99.90
32612;DHT22;19030;49.478;8.986;2023-11-21T07:40:35;9.40;99.90
32612;DHT22;19030;49.478;8.986;2023-11-21T07:42:36;9.40;99.90
32612;DHT22;19030;49.478;8.986;2023-11-21T07:44:36;9.40;99.90
32612;DHT22;19030;49.478;8.986;2023-11-21T07:46:37;9.40;99.90
32612;DHT22;19030;49.478;8.986;2023-11-21T07:48:38;9.30;99.90
32612;DHT22;19030;49.478;8.986;2023-11-21T07:50:38;9.30;99.90
32612;DHT22;19030;49.478;8.986;2023-11-21T07:52:39;9.30;99.90
32612;DHT22;19030;49.478;8.986;2023-11-21T07:54:40;9.30;99.90
32612;DHT22;19030;49.478;8.986;2023-11-21T07:56:40;9.30;99.90
32612;DHT22;19030;49.478;8.986;2023-11-21T07:58:41;9.30;99.90
32612;DHT22;19030;49.478;8.986;2023-11-21T08:00:41;9.30;99.90
32612;DHT22;19030;49.478;8.986;2023-11-21T08:02:42;9.30;99.90
32612;DHT22;19030;49.478;8.986;2023-11-21T08:04:43;9.30;99.90
32612;DHT22;19030;49.478;8.986;2023-11-21T08:06:43;9.30;99.90
32612;DHT22;19030;49.478;8.986;2023-11-21T08:08:44;9.30;99.90
32612;DHT22;19030;49.478;8.986;2023-11-21T08:10:45;9.30;99.90
32612;DHT22;19030;49.478;8.986;2023-11-21T08:12:48;9.40;99.90
32612;DHT22;19030;49.478;8.986;2023-11-21T08:14:50;9.40;99.90
32612;DHT22;19030;49.478;8.986;2023-11-21T08:16:51;9.40;99.90
32612;DHT22;19030;49.478;8.986;2023-11-21T08:18:52;9.40;99.90
32612;DHT22;19030;49.478;8.986;2023-11-21T08:20:54;9.40;99.90
32612;DHT22;19030;49.478;8.986;2023-11-21T08:22:55;9.40;99.90
32612;DHT22;19030;49.478;8.986;2023-11-21T08:24:57;9.40;99.90
32612;DHT22;19030;49.478;8.986;2023-11-21T08:26:58;9.40;99.90
32612;DHT22;19030;49.478;8.986;2023-11-21T08:28:59;9.40;99.90
32612;DHT22;19030;49.478;8.986;2023-11-21T08:31:01;9.50;99.90
32612;DHT22;19030;49.478;8.986;2023-11-21T08:33:01;9.60;99.90
32612;DHT22;19030;49.478;8.986;2023-11-21T08:35:03;9.70;99.90
32612;DHT22;19030;49.478;8.986;2023-11-21T08:37:05;9.70;99.90
32612;DHT22;19030;49.478;8.986;2023-11-21T08:39:06;9.90;99.90
32612;DHT22;19030;49.478;8.986;2023-11-21T08:41:07;10.00;99.90
32612;DHT22;19030;49.478;8.986;2023-11-21T08:43:07;10.10;99.90
32612;DHT22;19030;49.478;8.986;2023-11-21T08:45:09;10.20;99.90
32612;DHT22;19030;49.478;8.986;2023-11-21T08:47:09;10.30;99.90
32612;DHT22;19030;49.478;8.986;2023-11-21T08:49:11;10.30;99.90
32612;DHT22;19030;49.478;8.986;2023-11-21T08:51:12;10.50;99.90
32612;DHT22;19030;49.478;8.986;2023-11-21T08:53:12;10.60;99.90
32612;DHT22;19030;49.478;8.986;2023-11-21T08:55:13;10.80;99.90
32612;DHT22;19030;49.478;8.986;2023-11-21T08:57:14;11.00;99.90
32612;DHT22;19030;49.478;8.986;2023-11-21T08:59:14;11.10;99.90
32612;DHT22;19030;49.478;8.986;2023-11-21T09:01:15;11.30;99.90
32612;DHT22;19030;49.478;8.986;2023-11-21T09:03:15;11.50;99.90
32612;DHT22;19030;49.478;8.986;2023-11-21T09:05:16;11.60;99.90
32612;DHT22;19030;49.478;8.986;2023-11-21T09:07:18;11.70;99.90
32612;DHT22;19030;49.478;8.986;2023-11-21T09:09:20;11.80;99.90
32612;DHT22;19030;49.478;8.986;2023-11-21T09:11:21;11.80;99.90
32612;DHT22;19030;49.478;8.986;2023-11-21T09:13:21;11.80;99.90
32612;DHT22;19030;49.478;8.986;2023-11-21T09:15:22;11.70;99.90
32612;DHT22;19030;49.478;8.986;2023-11-21T09:17:23;11.60;99.90
32612;DHT22;19030;49.478;8.986;2023-11-21T09:19:24;11.50;99.90
32612;DHT22;19030;49.478;8.986;2023-11-21T09:21:25;11.40;99.90
32612;DHT22;19030;49.478;8.986;2023-11-21T09:23:26;11.30;99.90
32612;DHT22;19030;49.478;8.986;2023-11-21T09:25:26;11.30;99.90
32612;DHT22;19030;49.478;8.986;2023-11-21T09:27:29;11.40;99.90
32612;DHT22;19030;49.478;8.986;2023-11-21T09:29:30;11.40;99.90
32612;DHT22;19030;49.478;8.986;2023-11-21T09:31:30;11.50;99.90
32612;DHT22;19030;49.478;8.986;2023-11-21T09:33:31;11.60;99.90
32612;DHT22;19030;49.478;8.986;2023-11-21T09:35:32;11.70;99.90
32612;DHT22;19030;49.478;8.986;2023-11-21T09:37:32;11.70;99.90
32612;DHT22;19030;49.478;8.986;2023-11-21T09:39:34;11.90;99.90
32612;DHT22;19030;49.478;8.986;2023-11-21T09:41:43;11.90;99.90
32612;DHT22;19030;49.478;8.986;2023-11-21T09:43:46;11.90;99.90
32612;DHT22;19030;49.478;8.986;2023-11-21T09:45:56;11.80;99.90
32612;DHT22;19030;49.478;8.986;2023-11-21T09:47:59;11.80;99.90
32612;DHT22;19030;49.478;8.986;2023-11-21T09:50:01;11.80;99.90
32612;DHT22;19030;49.478;8.986;2023-11-21T09:52:02;11.90;99.90
32612;DHT22;19030;49.478;8.986;2023-11-21T09:54:03;12.10;99.90
32612;DHT22;19030;49.478;8.986;2023-11-21T09:56:09;12.60;99.90
32612;DHT22;19030;49.478;8.986;2023-11-21T09:58:10;13.50;99.90
32612;DHT22;19030;49.478;8.986;2023-11-21T10:00:15;14.30;99.90
32612;DHT22;19030;49.478;8.986;2023-11-21T10:02:18;14.80;99.90
32612;DHT22;19030;49.478;8.986;2023-11-21T10:04:21;15.10;99.90
32612;DHT22;19030;49.478;8.986;2023-11-21T10:06:22;15.00;99.90
32612;DHT22;19030;49.478;8.986;2023-11-21T10:08:24;15.20;99.90
32612;DHT22;19030;49.478;8.986;2023-11-21T10:10:30;16.00;99.90
32612;DHT22;19030;49.478;8.986;2023-11-21T10:12:32;17.40;99.90
32612;DHT22;19030;49.478;8.986;2023-11-21T10:14:35;18.70;99.90
32612;DHT22;19030;49.478;8.986;2023-11-21T10:16:38;19.60;99.90
32612;DHT22;19030;49.478;8.986;2023-11-21T10:18:39;19.90;99.90
32612;DHT22;19030;49.478;8.986;2023-11-21T10:20:41;19.30;99.90
32612;DHT22;19030;49.478;8.986;2023-11-21T10:22:43;18.20;99.90
32612;DHT22;19030;49.478;8.986;2023-11-21T10:24:43;16.90;99.90
32612;DHT22;19030;49.478;8.986;2023-11-21T10:26:44;15.70;99.90
32612;DHT22;19030;49.478;8.986;2023-11-21T10:28:58;14.90;99.90
32612;DHT22;19030;49.478;8.986;2023-11-21T10:30:59;14.40;99.90
32612;DHT22;19030;49.478;8.986;2023-11-21T10:32:59;14.40;99.90
32612;DHT22;19030;49.478;8.986;2023-11-21T10:35:02;14.50;99.90
32612;DHT22;19030;49.478;8.986;2023-11-21T10:37:13;14.70;99.90
32612;DHT22;19030;49.478;8.986;2023-11-21T10:39:18;15.70;99.90
32612;DHT22;19030;49.478;8.986;2023-11-21T10:41:20;16.30;99.90
32612;DHT22;19030;49.478;8.986;2023-11-21T10:43:25;16.30;99.90
32612;DHT22;19030;49.478;8.986;2023-11-21T10:45:25;16.40;99.90
32612;DHT22;19030;49.478;8.986;2023-11-21T10:47:31;16.90;99.90
32612;DHT22;19030;49.478;8.986;2023-11-21T10:49:32;18.10;99.90
32612;DHT22;19030;49.478;8.986;2023-11-21T10:51:32;19.10;99.90
32612;DHT22;19030;49.478;8.986;2023-11-21T10:53:33;20.20;99.50
32612;DHT22;19030;49.478;8.986;2023-11-21T10:55:34;21.70;95.20
32612;DHT22;19030;49.478;8.986;2023-11-21T10:57:35;21.90;91.60
32612;DHT22;19030;49.478;8.986;2023-11-21T10:59:36;20.80;92.10
32612;DHT22;19030;49.478;8.986;2023-11-21T11:01:36;19.50;93.80
32612;DHT22;19030;49.478;8.986;2023-11-21T11:03:37;18.50;97.00
32612;DHT22;19030;49.478;8.986;2023-11-21T11:05:38;17.80;99.60
32612;DHT22;19030;49.478;8.986;2023-11-21T11:07:43;17.10;99.90
32612;DHT22;19030;49.478;8.986;2023-11-21T11:09:45;16.80;99.90
32612;DHT22;19030;49.478;8.986;2023-11-21T11:11:46;16.50;99.90
32612;DHT22;19030;49.478;8.986;2023-11-21T11:13:46;16.20;99.90
32612;DHT22;19030;49.478;8.986;2023-11-21T11:15:48;15.80;99.90
32612;DHT22;19030;49.478;8.986;2023-11-21T11:17:49;15.40;99.90
32612;DHT22;19030;49.478;8.986;2023-11-21T11:19:50;15.30;99.90
32612;DHT22;19030;49.478;8.986;2023-11-21T11:21:59;15.10;99.90
32612;DHT22;19030;49.478;8.986;2023-11-21T11:24:17;14.90;99.90
32612;DHT22;19030;49.478;8.986;2023-11-21T11:26:50;14.70;99.90
32612;DHT22;19030;49.478;8.986;2023-11-21T11:34:47;14.20;99.90
32612;DHT22;19030;49.478;8.986;2023-11-21T11:36:34;13.90;99.90
32612;DHT22;19030;49.478;8.986;2023-11-21T11:38:36;13.80;99.90
32612;DHT22;19030;49.478;8.986;2023-11-21T11:40:41;13.50;99.90
32612;DHT22;19030;49.478;8.986;2023-11-21T11:42:58;13.20;99.90
32612;DHT22;19030;49.478;8.986;2023-11-21T11:45:17;13.00;99.90
32612;DHT22;19030;49.478;8.986;2023-11-21T11:47:30;12.70;99.90
32612;DHT22;19030;49.478;8.986;2023-11-21T11:49:33;12.60;99.90
32612;DHT22;19030;49.478;8.986;2023-11-21T11:51:33;12.40;99.90
32612;DHT22;19030;49.478;8.986;2023-11-21T11:53:38;12.40;99.90
32612;DHT22;19030;49.478;8.986;2023-11-21T11:55:39;12.40;99.90
32612;DHT22;19030;49.478;8.986;2023-11-21T11:57:41;12.30;99.90
32612;DHT22;19030;49.478;8.986;2023-11-21T12:00:14;12.40;99.90
32612;DHT22;19030;49.478;8.986;2023-11-21T12:02:23;12.50;99.90
32612;DHT22;19030;49.478;8.986;2023-11-21T12:04:24;12.70;99.90
32612;DHT22;19030;49.478;8.986;2023-11-21T12:06:35;12.80;99.90
32612;DHT22;19030;49.478;8.986;2023-11-21T12:08:36;12.90;99.90
32612;DHT22;19030;49.478;8.986;2023-11-21T12:10:39;12.80;99.90
32612;DHT22;19030;49.478;8.986;2023-11-21T12:12:43;12.80;99.90
32612;DHT22;19030;49.478;8.986;2023-11-21T12:14:45;12.70;99.90
32612;DHT22;19030;49.478;8.986;2023-11-21T12:16:46;12.70;99.90
32612;DHT22;19030;49.478;8.986;2023-11-21T12:18:48;12.70;99.90
32612;DHT22;19030;49.478;8.986;2023-11-21T12:20:49;12.60;99.90
32612;DHT22;19030;49.478;8.986;2023-11-21T12:22:52;12.60;99.90
32612;DHT22;19030;49.478;8.986;2023-11-21T12:24:52;12.60;99.90
32612;DHT22;19030;49.478;8.986;2023-11-21T12:26:53;12.60;99.90
32612;DHT22;19030;49.478;8.986;2023-11-21T12:28:54;12.60;99.90
32612;DHT22;19030;49.478;8.986;2023-11-21T12:30:57;12.60;99.90
32612;DHT22;19030;49.478;8.986;2023-11-21T12:32:59;12.70;99.90
32612;DHT22;19030;49.478;8.986;2023-11-21T12:35:00;13.00;99.90
32612;DHT22;19030;49.478;8.986;2023-11-21T12:37:03;13.30;99.90
32612;DHT22;19030;49.478;8.986;2023-11-21T12:39:04;13.90;99.90
32612;DHT22;19030;49.478;8.986;2023-11-21T12:41:05;14.80;99.90
32612;DHT22;19030;49.478;8.986;2023-11-21T12:43:07;15.60;99.90
32612;DHT22;19030;49.478;8.986;2023-11-21T12:47:19;17.00;99.90
32612;DHT22;19030;49.478;8.986;2023-11-21T12:49:22;18.00;99.90
32612;DHT22;19030;49.478;8.986;2023-11-21T12:51:22;19.20;99.90
32612;DHT22;19030;49.478;8.986;2023-11-21T12:53:23;19.90;99.90
32612;DHT22;19030;49.478;8.986;2023-11-21T12:55:24;20.20;99.60
32612;DHT22;19030;49.478;8.986;2023-11-21T12:57:27;20.40;98.30
32612;DHT22;19030;49.478;8.986;2023-11-21T12:59:28;21.70;96.30
32612;DHT22;19030;49.478;8.986;2023-11-21T13:01:30;23.20;90.30
32612;DHT22;19030;49.478;8.986;2023-11-21T13:03:32;24.50;83.20